Time;durP1;ratioP1;P1;durP2;ratioP2;P2;SDS_P1;SDS_P2;PMS_P1;PMS_P2;Temp;Humidity;BMP_temperature;BMP_pressure;BME280_temperature;BME280_humidity;BME280_pressure;Samples;Min_cycle;Max_cycle;Signal;HPM_P1;HPM_P2
2022/03/10 00:02:10;;;;;;;10.20;5.70;;;5.70;1.00;;;;;;10475252;27;87093;-43
2022/03/10 00:07:11;;;;;;;10.40;5.05;;;5.60;1.00;;;;;;10479272;27;86061;-47
2022/03/10 00:12:11;;;;;;;13.27;4.88;;;5.60;1.00;;;;;;10497557;27;85454;-50
2022/03/10 00:17:12;;;;;;;8.07;4.13;;;5.50;1.00;;;;;;10492347;27;85833;-46
2022/03/10 00:22:14;;;;;;;12.90;4.47;;;5.50;47.30;;;;;;10497759;27;84308;-47
2022/03/10 00:27:15;;;;;;;7.00;4.10;;;5.40;99.90;;;;;;10477580;27;85046;-46
2022/03/10 00:32:16;;;;;;;8.95;4.32;;;5.40;99.90;;;;;;10454067;28;87117;-48
2022/03/10 00:37:16;;;;;;;9.98;4.50;;;5.30;99.90;;;;;;10454476;28;84131;-49
2022/03/10 00:42:17;;;;;;;12.13;4.72;;;5.30;99.90;;;;;;10461705;27;86037;-45
2022/03/10 00:47:19;;;;;;;9.20;4.63;;;5.20;99.90;;;;;;10496385;27;90100;-47
2022/03/10 00:52:19;;;;;;;10.30;4.32;;;5.20;1.00;;;;;;10496033;27;84081;-47
2022/03/10 00:57:20;;;;;;;11.07;5.00;;;5.20;1.00;;;;;;10461405;27;90565;-45
2022/03/10 01:02:21;;;;;;;10.60;3.83;;;5.10;1.00;;;;;;10454432;27;84809;-46
2022/03/10 01:07:21;;;;;;;7.20;4.20;;;5.10;1.00;;;;;;10452852;28;86970;-45
2022/03/10 01:12:22;;;;;;;7.57;4.35;;;5.10;1.00;;;;;;10453835;27;84947;-45
2022/03/10 01:17:23;;;;;;;7.25;3.72;;;5.00;1.00;;;;;;10453244;28;84209;-45
2022/03/10 01:22:24;;;;;;;10.60;4.45;;;4.90;1.00;;;;;;10453348;27;85248;-46
2022/03/10 01:27:24;;;;;;;8.65;3.90;;;4.90;8.20;;;;;;10463191;27;84234;-45
2022/03/10 01:32:25;;;;;;;9.98;4.38;;;4.80;99.90;;;;;;10496348;27;84872;-49
2022/03/10 01:37:26;;;;;;;8.02;3.72;;;4.80;1.00;;;;;;10493295;27;84919;-45
2022/03/10 01:42:26;;;;;;;8.52;4.28;;;4.70;1.00;;;;;;10487842;27;84149;-49
2022/03/10 01:47:27;;;;;;;11.75;4.47;;;4.60;1.00;;;;;;10451872;27;84035;-46
2022/03/10 01:52:29;;;;;;;9.93;4.00;;;4.60;99.90;;;;;;10452565;28;84610;-48
2022/03/10 01:57:30;;;;;;;7.30;3.67;;;4.60;1.00;;;;;;10450667;27;87106;-46
2022/03/10 02:02:31;;;;;;;11.48;5.32;;;4.60;1.00;;;;;;10452998;27;84136;-45
2022/03/10 02:12:53;;;;;;;9.45;4.30;;;4.60;1.00;;;;;;10461483;27;87838;-46
2022/03/10 02:17:53;;;;;;;10.07;4.22;;;4.50;99.90;;;;;;10493411;27;84031;-48
2022/03/10 02:22:54;;;;;;;9.82;4.13;;;4.50;99.90;;;;;;10493874;27;84704;-46
2022/03/10 02:27:56;;;;;;;10.00;4.97;;;4.40;1.00;;;;;;10490787;27;84922;-48
2022/03/10 02:33:00;;;;;;;9.38;4.28;;;4.40;1.00;;;;;;10494362;27;84973;-45
2022/03/10 02:38:01;;;;;;;12.88;5.18;;;4.30;99.90;;;;;;10492514;27;84112;-47
2022/03/10 02:43:02;;;;;;;8.73;3.75;;;4.30;1.00;;;;;;10461989;27;85098;-45
2022/03/10 02:48:03;;;;;;;7.63;4.50;;;4.20;1.00;;;;;;10449255;28;87170;-45
2022/03/10 02:53:05;;;;;;;15.20;4.47;;;4.20;1.00;;;;;;10473290;22;84118;-57
2022/03/10 02:58:05;;;;;;;10.38;3.78;;;4.20;99.90;;;;;;10470331;27;85051;-57
2022/03/10 03:03:06;;;;;;;10.70;4.72;;;4.10;1.00;;;;;;10492476;27;86040;-54
2022/03/10 03:08:08;;;;;;;9.18;4.38;;;4.00;1.00;;;;;;10533827;27;94885;-54
2022/03/10 03:13:08;;;;;;;9.15;4.03;;;4.00;1.70;;;;;;10534750;27;83996;-58
2022/03/10 03:18:09;;;;;;;10.68;4.47;;;4.00;99.90;;;;;;10535581;27;84944;-58
2022/03/10 03:23:09;;;;;;;8.90;3.75;;;4.00;99.90;;;;;;10534206;27;85504;-54
2022/03/10 03:28:10;;;;;;;9.02;5.00;;;4.00;1.00;;;;;;10533296;27;88685;-56
2022/03/10 03:33:11;;;;;;;7.53;4.15;;;4.00;1.00;;;;;;10532434;27;85392;-59
2022/03/10 03:38:11;;;;;;;11.25;4.93;;;3.90;1.00;;;;;;10502662;27;84905;-57
2022/03/10 03:43:12;;;;;;;8.45;4.38;;;3.90;1.00;;;;;;10490610;27;85045;-56
2022/03/10 03:48:13;;;;;;;9.65;5.13;;;3.90;1.00;;;;;;10506499;27;84838;-55
2022/03/10 03:53:13;;;;;;;6.70;3.53;;;3.90;1.00;;;;;;10491573;27;85621;-57
2022/03/10 03:58:14;;;;;;;8.65;4.32;;;3.90;1.00;;;;;;10497322;27;85052;-55
2022/03/10 04:03:14;;;;;;;12.63;4.50;;;3.90;1.00;;;;;;10520049;27;84920;-57
2022/03/10 04:08:15;;;;;;;11.30;5.25;;;3.80;1.00;;;;;;10538870;27;89616;-56
2022/03/10 04:13:16;;;;;;;10.27;4.45;;;3.80;1.00;;;;;;10539878;27;84035;-55
2022/03/10 04:18:17;;;;;;;11.85;5.32;;;3.80;1.00;;;;;;10533395;27;90631;-55
2022/03/10 04:23:17;;;;;;;9.13;4.07;;;3.80;1.00;;;;;;10490666;27;84493;-56
2022/03/10 04:28:18;;;;;;;9.07;4.57;;;3.70;1.00;;;;;;10518172;27;84735;-59
2022/03/10 04:33:19;;;;;;;16.42;4.75;;;3.60;22.00;;;;;;10497340;27;84715;-57
2022/03/10 04:38:19;;;;;;;11.35;5.03;;;3.70;99.90;;;;;;10495815;27;84715;-56
2022/03/10 04:43:20;;;;;;;9.43;4.85;;;3.60;99.90;;;;;;10497715;27;89070;-58
2022/03/10 04:48:21;;;;;;;10.00;4.30;;;3.50;99.90;;;;;;10495485;27;84099;-58
2022/03/10 04:53:21;;;;;;;10.57;4.72;;;3.60;99.90;;;;;;10495301;27;84222;-57
2022/03/10 04:58:22;;;;;;;9.63;4.20;;;3.50;99.90;;;;;;10497599;27;84761;-57
2022/03/10 05:03:23;;;;;;;10.45;5.05;;;3.50;99.90;;;;;;10493335;27;84980;-56
2022/03/10 05:08:25;;;;;;;10.23;4.78;;;3.40;99.90;;;;;;10494033;27;84954;-57
2022/03/10 05:13:26;;;;;;;10.13;4.70;;;3.30;99.90;;;;;;10485362;27;84911;-57
2022/03/10 05:18:26;;;;;;;11.27;5.22;;;3.30;99.90;;;;;;10476293;27;84315;-58
2022/03/10 05:23:27;;;;;;;10.30;4.97;;;3.30;99.90;;;;;;10473037;27;84951;-59
2022/03/10 05:28:30;;;;;;;7.85;3.70;;;3.20;99.90;;;;;;10476443;27;86815;-57
2022/03/10 05:33:31;;;;;;;8.93;4.13;;;3.10;99.90;;;;;;10470718;27;86584;-55
2022/03/10 05:38:31;;;;;;;10.57;5.15;;;3.20;99.90;;;;;;10472706;27;85113;-60
2022/03/10 05:43:32;;;;;;;11.23;4.40;;;3.10;99.90;;;;;;10473250;27;84021;-58
2022/03/10 05:48:33;;;;;;;12.55;4.65;;;3.20;99.90;;;;;;10483222;27;84214;-54
2022/03/10 05:53:34;;;;;;;12.85;4.63;;;3.10;99.90;;;;;;10492932;27;87498;-52
2022/03/10 05:58:34;;;;;;;9.15;4.40;;;3.10;1.00;;;;;;10494441;27;84719;-54
2022/03/10 06:03:35;;;;;;;14.60;7.53;;;3.00;1.00;;;;;;10495817;27;84248;-55
2022/03/10 06:08:36;;;;;;;11.95;4.75;;;3.00;1.00;;;;;;10493620;27;84011;-58
2022/03/10 06:13:37;;;;;;;10.88;5.40;;;3.00;1.00;;;;;;10495342;27;84405;-59
2022/03/10 06:18:37;;;;;;;10.38;5.00;;;3.00;1.00;;;;;;10503218;27;84877;-58
2022/03/10 06:23:38;;;;;;;10.98;5.13;;;3.10;1.00;;;;;;10513287;27;84894;-57
2022/03/10 06:28:39;;;;;;;8.85;4.72;;;3.20;1.00;;;;;;10496070;27;84962;-60
2022/03/10 06:33:39;;;;;;;13.40;4.80;;;3.20;1.00;;;;;;10511126;27;84204;-62
2022/03/10 06:38:40;;;;;;;8.25;5.00;;;3.30;1.00;;;;;;10493345;27;84230;-59
2022/03/10 06:43:40;;;;;;;12.65;5.43;;;3.40;1.00;;;;;;10497405;27;84997;-60
2022/03/10 06:48:41;;;;;;;12.35;4.95;;;3.50;99.90;;;;;;10499157;27;84242;-62
2022/03/10 06:53:42;;;;;;;9.38;4.43;;;3.60;99.90;;;;;;10520916;27;84971;-62
2022/03/10 06:58:43;;;;;;;9.48;4.78;;;3.70;99.90;;;;;;10515877;27;87113;-59
2022/03/10 07:03:44;;;;;;;11.30;4.50;;;3.80;99.90;;;;;;10531822;27;86810;-59
2022/03/10 07:08:44;;;;;;;14.15;5.00;;;4.30;99.90;;;;;;10533443;27;85645;-58
2022/03/10 07:13:46;;;;;;;11.85;5.18;;;5.00;99.90;;;;;;10532306;27;84107;-61
2022/03/10 07:18:50;;;;;;;10.40;4.90;;;5.70;1.00;;;;;;10531865;27;84344;-60
2022/03/10 07:23:51;;;;;;;10.88;5.03;;;6.30;1.00;;;;;;10534757;27;84892;-61
2022/03/10 07:28:52;;;;;;;7.57;4.50;;;7.00;99.90;;;;;;10506457;27;85032;-61
2022/03/10 07:33:53;;;;;;;11.65;5.80;;;7.60;1.00;;;;;;10489201;27;84981;-60
2022/03/10 07:38:54;;;;;;;13.10;5.65;;;8.00;1.00;;;;;;10496506;27;84103;-59
2022/03/10 07:43:55;;;;;;;11.20;5.20;;;8.30;59.10;;;;;;10498369;27;84899;-60
2022/03/10 07:48:56;;;;;;;9.02;5.28;;;8.90;1.00;;;;;;10497334;27;84940;-59
2022/03/10 07:53:57;;;;;;;9.20;4.93;;;9.00;99.90;;;;;;10497624;27;84061;-60
2022/03/10 07:58:57;;;;;;;9.48;4.90;;;9.50;54.00;;;;;;10495098;27;84947;-62
2022/03/10 08:03:58;;;;;;;14.60;5.78;;;9.80;1.00;;;;;;10478112;27;85942;-60
2022/03/10 08:08:59;;;;;;;9.63;5.28;;;10.20;1.00;;;;;;10497319;27;84874;-62
2022/03/10 08:13:59;;;;;;;11.95;6.25;;;10.60;99.90;;;;;;10499286;27;84772;-61
2022/03/10 08:19:00;;;;;;;9.70;5.28;;;11.00;16.20;;;;;;10495720;27;84040;-59
2022/03/10 08:24:01;;;;;;;10.35;5.53;;;11.70;21.40;;;;;;10497520;27;84797;-58
2022/03/10 08:29:02;;;;;;;15.13;6.07;;;12.80;1.00;;;;;;10506553;27;84407;-57
2022/03/10 08:34:03;;;;;;;9.75;5.13;;;13.00;1.00;;;;;;10516101;27;84973;-55
2022/03/10 08:39:03;;;;;;;11.05;5.88;;;13.40;99.90;;;;;;10471757;27;84192;-52
2022/03/10 08:44:04;;;;;;;10.15;5.60;;;14.10;99.90;;;;;;10487370;27;84198;-58
2022/03/10 08:49:05;;;;;;;10.32;6.15;;;14.30;19.70;;;;;;10497185;27;84968;-55
2022/03/10 08:54:06;;;;;;;8.45;5.25;;;14.80;1.00;;;;;;10499963;22;84908;-46
2022/03/10 08:59:07;;;;;;;10.68;5.47;;;14.90;99.90;;;;;;10364505;28;84922;-48
2022/03/10 09:04:07;;;;;;;10.05;5.53;;;15.60;1.00;;;;;;10369194;28;86716;-44
2022/03/10 09:09:08;;;;;;;11.32;5.40;;;15.20;1.00;;;;;;10369629;28;84848;-47
2022/03/10 09:14:09;;;;;;;10.60;6.25;;;15.60;1.00;;;;;;10371482;28;86999;-46
2022/03/10 09:19:09;;;;;;;9.77;5.13;;;16.00;1.00;;;;;;10370775;28;84917;-46
2022/03/10 09:24:10;;;;;;;10.27;5.20;;;16.50;99.90;;;;;;10370181;28;84972;-44
2022/03/10 09:29:11;;;;;;;12.98;6.22;;;17.20;99.90;;;;;;10370081;28;84926;-46
2022/03/10 09:34:12;;;;;;;11.27;6.55;;;17.30;1.00;;;;;;10369618;28;84121;-46
2022/03/10 09:39:13;;;;;;;10.07;6.18;;;17.80;99.90;;;;;;10369593;28;87819;-46
2022/03/10 09:44:18;;;;;;;15.10;6.60;;;17.80;1.00;;;;;;10369792;28;84099;-44
2022/03/10 09:49:20;;;;;;;9.45;6.03;;;18.50;1.00;;;;;;10366271;28;85791;-48
2022/03/10 09:54:21;;;;;;;12.55;6.15;;;18.70;99.90;;;;;;10368631;28;84239;-45
2022/03/10 09:59:22;;;;;;;11.82;6.13;;;19.00;99.90;;;;;;10366787;28;84798;-49
2022/03/10 10:04:23;;;;;;;15.13;7.03;;;19.10;1.00;;;;;;10368205;28;84963;-46
2022/03/10 10:09:45;;;;;;;12.07;7.03;;;19.00;99.90;;;;;;10365581;28;84960;-45
2022/03/10 10:14:47;;;;;;;10.07;6.40;;;19.90;99.90;;;;;;10368736;28;84937;-46
2022/03/10 10:19:53;;;;;;;10.07;7.05;;;20.60;1.00;;;;;;10367811;28;83982;-47
2022/03/10 10:25:00;;;;;;;11.95;7.28;;;19.90;1.00;;;;;;10368634;28;84100;-44
2022/03/10 10:30:05;;;;;;;12.20;6.80;;;20.40;1.00;;;;;;10367705;28;85807;-46
2022/03/10 10:35:13;;;;;;;11.98;6.75;;;21.20;1.00;;;;;;10368020;28;84262;-45
2022/03/10 10:40:27;;;;;;;12.35;6.63;;;20.80;1.00;;;;;;10367770;28;85136;-45
2022/03/10 10:45:31;;;;;;;10.65;6.18;;;21.20;1.00;;;;;;10367687;28;84778;-45
2022/03/10 10:50:34;;;;;;;10.68;6.18;;;21.30;1.00;;;;;;10368086;28;84140;-50
2022/03/10 10:55:37;;;;;;;11.40;6.80;;;21.50;1.00;;;;;;10366389;28;85047;-48
2022/03/10 11:00:46;;;;;;;11.10;7.03;;;22.30;1.00;;;;;;10367153;28;84022;-46
2022/03/10 11:05:48;;;;;;;11.00;6.90;;;22.50;1.00;;;;;;10366220;28;84998;-48
2022/03/10 11:10:50;;;;;;;9.90;5.80;;;22.40;1.00;;;;;;10368214;28;84322;-48
2022/03/10 11:15:53;;;;;;;9.35;6.07;;;22.60;1.00;;;;;;10366087;28;84116;-46
2022/03/10 11:21:09;;;;;;;12.13;6.30;;;22.20;1.00;;;;;;10367323;28;84308;-45
2022/03/10 11:26:25;;;;;;;10.32;6.50;;;21.60;1.00;;;;;;10365723;28;84996;-45
2022/03/10 11:31:28;;;;;;;9.35;5.72;;;21.70;1.00;;;;;;10366642;28;84751;-45
2022/03/10 11:36:32;;;;;;;10.63;4.97;;;21.40;1.00;;;;;;10365052;28;84872;-46
2022/03/10 11:41:46;;;;;;;7.65;4.55;;;21.50;1.00;;;;;;10365687;28;85043;-46
2022/03/10 11:46:59;;;;;;;6.50;3.88;;;21.50;99.90;;;;;;10364839;28;84018;-45
2022/03/10 11:52:04;;;;;;;6.28;3.67;;;22.20;99.90;;;;;;10365761;28;85010;-46
2022/03/10 11:57:06;;;;;;;5.95;3.85;;;21.90;99.90;;;;;;10364195;28;84976;-50
2022/03/10 12:02:08;;;;;;;6.93;4.22;;;22.40;99.90;;;;;;10363387;28;87055;-47
2022/03/10 12:07:16;;;;;;;6.35;4.05;;;22.00;99.90;;;;;;10364522;28;84938;-46
2022/03/10 12:12:26;;;;;;;8.18;4.57;;;21.90;99.90;;;;;;10369743;28;84181;-46
2022/03/10 12:17:42;;;;;;;7.22;4.45;;;22.70;99.90;;;;;;10371321;28;84091;-47
2022/03/10 12:22:58;;;;;;;6.90;4.18;;;21.60;99.90;;;;;;10369991;28;85166;-45
2022/03/10 12:27:59;;;;;;;6.47;4.30;;;21.40;99.90;;;;;;10371401;28;84326;-45
2022/03/10 12:32:59;;;;;;;6.45;4.03;;;21.60;99.90;;;;;;10371239;28;95523;-46
2022/03/10 12:38:00;;;;;;;7.00;4.45;;;21.70;99.90;;;;;;10370340;28;84038;-44
2022/03/10 12:43:03;;;;;;;5.55;4.38;;;22.30;99.90;;;;;;10372096;28;84331;-45
2022/03/10 12:48:15;;;;;;;5.50;3.80;;;23.20;99.90;;;;;;10370319;28;84918;-45
2022/03/10 12:53:17;;;;;;;9.50;4.78;;;22.60;99.90;;;;;;10371597;28;84116;-45
2022/03/10 12:58:29;;;;;;;5.75;3.88;;;22.60;99.90;;;;;;10369794;28;84896;-49
2022/03/10 13:03:51;;;;;;;7.20;4.35;;;22.50;99.90;;;;;;10370539;28;85041;-51
2022/03/10 13:08:59;;;;;;;5.28;3.50;;;22.80;99.90;;;;;;10370415;28;84952;-45
2022/03/10 13:14:07;;;;;;;6.53;4.25;;;21.70;99.90;;;;;;10370537;28;84105;-46
2022/03/10 13:19:20;;;;;;;5.90;3.90;;;22.00;99.90;;;;;;10368334;28;84002;-45
2022/03/10 13:24:41;;;;;;;6.13;4.05;;;21.50;99.90;;;;;;10369820;28;85067;-46
2022/03/10 13:29:44;;;;;;;6.63;3.58;;;21.90;99.90;;;;;;10369346;28;84889;-49
2022/03/10 13:34:46;;;;;;;5.10;3.83;;;21.30;99.90;;;;;;10370757;28;84953;-45
2022/03/10 13:39:48;;;;;;;5.88;3.53;;;21.40;99.90;;;;;;10370023;28;85158;-46
2022/03/10 13:44:58;;;;;;;6.05;3.85;;;21.90;99.90;;;;;;10369197;28;85121;-47
2022/03/10 13:50:00;;;;;;;4.88;3.08;;;21.70;99.90;;;;;;10369241;28;84284;-45
2022/03/10 13:55:09;;;;;;;4.07;2.90;;;21.90;99.90;;;;;;10369008;28;85453;-47
2022/03/10 14:00:10;;;;;;;3.92;2.75;;;22.10;99.90;;;;;;10369299;28;84103;-44
2022/03/10 14:05:12;;;;;;;3.65;2.70;;;22.00;99.90;;;;;;10369562;28;84579;-45
2022/03/10 14:10:13;;;;;;;3.42;2.50;;;21.60;99.90;;;;;;10368691;28;84051;-50
2022/03/10 14:15:25;;;;;;;3.92;2.50;;;20.60;99.90;;;;;;10369387;28;84268;-46
2022/03/10 14:20:39;;;;;;;3.85;2.42;;;19.20;99.90;;;;;;10368889;28;84928;-50
2022/03/10 14:25:48;;;;;;;4.43;2.15;;;18.40;99.90;;;;;;10366809;28;84936;-46
2022/03/10 14:30:50;;;;;;;3.92;2.17;;;18.30;99.90;;;;;;10369239;28;84964;-49
2022/03/10 14:35:51;;;;;;;3.65;2.25;;;18.20;99.90;;;;;;10366879;28;84190;-47
2022/03/10 14:40:52;;;;;;;3.58;2.30;;;18.80;99.90;;;;;;10366612;28;84154;-48
2022/03/10 14:45:53;;;;;;;5.55;2.55;;;19.10;99.90;;;;;;10365363;28;87020;-47
2022/03/10 14:50:54;;;;;;;3.95;2.55;;;19.40;99.90;;;;;;10368111;28;84226;-48
2022/03/10 14:55:55;;;;;;;3.50;2.10;;;19.30;99.90;;;;;;10408740;22;85358;-55
2022/03/10 15:00:55;;;;;;;3.00;2.08;;;19.40;99.90;;;;;;10451766;28;84877;-60
2022/03/10 15:05:56;;;;;;;2.90;1.80;;;20.00;99.90;;;;;;10455983;28;84879;-59
2022/03/10 15:10:57;;;;;;;4.78;2.00;;;20.30;99.90;;;;;;10453349;28;84897;-59
2022/03/10 15:15:59;;;;;;;2.90;1.67;;;19.70;99.90;;;;;;10451823;28;84145;-58
2022/03/10 15:21:01;;;;;;;3.03;2.00;;;19.00;99.90;;;;;;10452817;28;84901;-58
2022/03/10 15:26:04;;;;;;;2.38;1.48;;;18.60;99.90;;;;;;10449525;28;87039;-59
2022/03/10 15:31:05;;;;;;;5.22;2.47;;;18.00;99.90;;;;;;10450693;27;84005;-56
2022/03/10 15:36:05;;;;;;;5.97;2.60;;;17.60;99.90;;;;;;10448638;27;84146;-58
2022/03/10 15:41:06;;;;;;;6.45;3.25;;;17.10;99.90;;;;;;10448272;28;84158;-59
2022/03/10 15:46:07;;;;;;;5.53;2.83;;;16.90;99.90;;;;;;10452529;27;84957;-59
2022/03/10 15:51:08;;;;;;;5.10;2.70;;;16.60;99.90;;;;;;10457553;27;84908;-56
2022/03/10 15:56:09;;;;;;;6.78;3.28;;;16.30;99.90;;;;;;10455859;27;85013;-60
2022/03/10 16:01:09;;;;;;;4.18;2.33;;;16.30;99.90;;;;;;10484243;27;84806;-61
2022/03/10 16:06:10;;;;;;;5.90;2.75;;;16.20;99.90;;;;;;10497925;27;84766;-54
2022/03/10 16:11:11;;;;;;;4.57;2.60;;;16.10;99.90;;;;;;10457652;27;85046;-56
2022/03/10 16:16:14;;;;;;;4.38;3.13;;;16.00;99.90;;;;;;10446278;27;84830;-56
2022/03/10 16:21:14;;;;;;;5.85;3.05;;;15.70;99.90;;;;;;10417465;28;84158;-55
2022/03/10 16:26:15;;;;;;;6.93;3.50;;;15.60;99.90;;;;;;10460347;27;84338;-55
2022/03/10 16:31:16;;;;;;;7.18;3.63;;;15.50;99.90;;;;;;10498667;27;84967;-59
2022/03/10 16:36:17;;;;;;;6.43;3.88;;;15.30;99.90;;;;;;10473447;27;84148;-58
2022/03/10 16:41:17;;;;;;;7.07;3.50;;;15.20;99.90;;;;;;10498360;27;85081;-57
2022/03/10 16:46:18;;;;;;;5.32;3.05;;;15.10;99.90;;;;;;10461128;27;85665;-57
2022/03/10 16:51:19;;;;;;;6.85;3.53;;;14.90;99.90;;;;;;10495557;27;86628;-54
2022/03/10 16:56:19;;;;;;;6.07;3.75;;;14.80;99.90;;;;;;10489404;27;85549;-56
2022/03/10 17:01:20;;;;;;;7.53;3.50;;;14.60;99.90;;;;;;10450659;27;84156;-58
2022/03/10 17:06:21;;;;;;;7.53;3.58;;;14.50;99.90;;;;;;10456022;27;84874;-59
2022/03/10 17:11:22;;;;;;;7.40;3.15;;;14.50;99.90;;;;;;10449494;27;85971;-55
2022/03/10 17:16:24;;;;;;;5.93;2.97;;;14.20;99.90;;;;;;10449658;27;84740;-55
2022/03/10 17:21:26;;;;;;;6.53;3.13;;;14.10;99.90;;;;;;10473424;27;86009;-54
2022/03/10 17:26:28;;;;;;;7.20;3.30;;;14.00;99.90;;;;;;10488445;27;84294;-55
2022/03/10 17:31:29;;;;;;;6.25;3.20;;;13.80;99.90;;;;;;10459846;27;85978;-54
2022/03/10 17:36:29;;;;;;;5.18;3.13;;;13.70;99.90;;;;;;10487403;27;85112;-54
2022/03/10 17:41:31;;;;;;;7.93;3.78;;;13.50;99.90;;;;;;10491584;27;85314;-55
2022/03/10 17:46:33;;;;;;;6.32;3.20;;;13.30;99.90;;;;;;10487868;27;84255;-56
2022/03/10 17:51:36;;;;;;;5.07;3.08;;;13.20;99.90;;;;;;10448808;27;85164;-56
2022/03/10 17:56:36;;;;;;;8.85;3.75;;;13.00;99.90;;;;;;10463914;27;84891;-58
2022/03/10 18:01:37;;;;;;;5.78;3.58;;;12.90;99.90;;;;;;10472256;27;86284;-57
2022/03/10 18:06:39;;;;;;;8.38;4.13;;;12.70;99.90;;;;;;10463654;27;85406;-49
2022/03/10 18:11:39;;;;;;;6.07;3.55;;;12.60;99.90;;;;;;10467220;27;85108;-60
2022/03/10 18:16:40;;;;;;;5.88;3.42;;;12.50;99.90;;;;;;10477154;27;84254;-56
2022/03/10 18:21:41;;;;;;;8.98;3.88;;;12.30;99.90;;;;;;10448250;27;85469;-57
2022/03/10 18:26:41;;;;;;;9.85;4.45;;;12.20;99.90;;;;;;10449212;27;84755;-56
2022/03/10 18:31:42;;;;;;;9.20;3.50;;;12.10;99.90;;;;;;10461576;27;84950;-61
2022/03/10 18:36:43;;;;;;;7.32;4.32;;;12.00;99.90;;;;;;10469027;27;84200;-59
2022/03/10 18:41:43;;;;;;;7.25;4.50;;;12.00;99.90;;;;;;10484782;27;84840;-55
2022/03/10 18:46:44;;;;;;;7.80;4.07;;;11.80;99.90;;;;;;10481670;27;84464;-59
2022/03/10 18:51:45;;;;;;;8.82;3.97;;;11.70;99.90;;;;;;10446630;28;84831;-57
2022/03/10 18:56:46;;;;;;;8.40;4.53;;;11.60;99.90;;;;;;10450245;27;86367;-56
2022/03/10 19:01:46;;;;;;;9.10;3.78;;;11.50;99.90;;;;;;10488878;27;84034;-54
2022/03/10 19:06:47;;;;;;;8.98;4.30;;;11.40;99.90;;;;;;10454123;27;84680;-54
2022/03/10 19:11:48;;;;;;;7.35;4.20;;;11.40;99.90;;;;;;10446769;28;85637;-55
2022/03/10 19:16:49;;;;;;;7.35;4.05;;;11.30;99.90;;;;;;10448202;27;84495;-56
2022/03/10 19:21:50;;;;;;;9.77;5.10;;;11.20;99.90;;;;;;10451509;27;84122;-58
2022/03/10 19:26:52;;;;;;;9.10;4.28;;;11.10;99.90;;;;;;10461073;27;84946;-53
2022/03/10 19:31:53;;;;;;;8.88;4.18;;;11.10;99.90;;;;;;10496365;27;84083;-56
2022/03/10 19:36:56;;;;;;;7.70;4.10;;;11.00;99.90;;;;;;10470624;27;84882;-56
2022/03/10 19:41:59;;;;;;;6.78;4.07;;;10.90;99.90;;;;;;10435127;28;86856;-54
2022/03/10 19:46:59;;;;;;;6.85;3.55;;;10.80;99.90;;;;;;10476336;27;85583;-57
2022/03/10 19:52:00;;;;;;;7.10;3.72;;;10.80;99.90;;;;;;10494383;27;84918;-55
2022/03/10 19:57:02;;;;;;;7.93;4.03;;;10.60;99.90;;;;;;10466823;27;84975;-58
2022/03/10 20:02:03;;;;;;;6.88;3.70;;;10.50;99.90;;;;;;10452177;28;84994;-55
2022/03/10 20:07:04;;;;;;;5.97;3.72;;;10.40;99.90;;;;;;10468626;27;84739;-59
2022/03/10 20:12:06;;;;;;;6.82;3.60;;;10.40;99.90;;;;;;10494450;27;85192;-56
2022/03/10 20:17:07;;;;;;;6.03;3.78;;;10.30;99.90;;;;;;10466936;27;84266;-56
2022/03/10 20:22:08;;;;;;;6.60;3.70;;;10.20;99.90;;;;;;10462325;27;84899;-56
2022/03/10 20:27:08;;;;;;;9.05;4.18;;;10.20;1.00;;;;;;10467601;27;84814;-56
2022/03/10 20:32:09;;;;;;;7.70;3.85;;;10.10;1.00;;;;;;10452265;27;86229;-57
2022/03/10 20:37:10;;;;;;;8.55;4.22;;;10.00;1.00;;;;;;10460635;27;84885;-51
2022/03/10 20:42:11;;;;;;;9.95;4.35;;;9.80;1.00;;;;;;10472402;27;84243;-53
2022/03/10 20:47:12;;;;;;;7.78;4.47;;;9.80;1.00;;;;;;10471090;27;84040;-56
2022/03/10 20:52:13;;;;;;;6.57;3.63;;;9.80;1.00;;;;;;10468591;27;85927;-54
2022/03/10 20:57:14;;;;;;;7.68;4.25;;;9.60;1.00;;;;;;10469042;27;84978;-55
2022/03/10 21:02:15;;;;;;;10.55;4.60;;;9.50;1.00;;;;;;10451757;28;84343;-51
2022/03/10 21:07:16;;;;;;;10.65;4.53;;;9.40;1.00;;;;;;10463009;27;84075;-52
2022/03/10 21:12:17;;;;;;;8.77;5.13;;;9.30;25.80;;;;;;10481803;27;87045;-56
2022/03/10 21:17:17;;;;;;;9.88;5.15;;;9.20;99.90;;;;;;10471913;27;84312;-53
2022/03/10 21:22:18;;;;;;;9.93;4.90;;;9.20;99.90;;;;;;10472921;27;84938;-53
2022/03/10 21:27:19;;;;;;;10.57;4.95;;;9.10;1.00;;;;;;10467906;27;84245;-58
2022/03/10 21:32:19;;;;;;;7.80;4.55;;;9.00;1.00;;;;;;10469377;27;84929;-54
2022/03/10 21:37:20;;;;;;;10.93;4.82;;;8.90;1.00;;;;;;10454537;27;84820;-55
2022/03/10 21:42:21;;;;;;;9.98;4.63;;;8.90;1.00;;;;;;10452077;27;84264;-59
2022/03/10 21:47:23;;;;;;;9.63;4.75;;;8.90;46.60;;;;;;10454155;27;84580;-57
2022/03/10 21:52:24;;;;;;;9.13;4.75;;;8.80;99.90;;;;;;10462156;27;85417;-55
2022/03/10 21:57:24;;;;;;;8.35;5.38;;;8.70;99.90;;;;;;10451258;27;86086;-57
2022/03/10 22:02:25;;;;;;;11.18;4.93;;;8.60;99.90;;;;;;10428748;27;84095;-57
2022/03/10 22:07:26;;;;;;;10.15;5.13;;;8.60;99.90;;;;;;10424186;28;85022;-56
2022/03/10 22:12:26;;;;;;;10.05;4.53;;;8.50;1.00;;;;;;10429763;27;84801;-55
2022/03/10 22:17:27;;;;;;;10.38;4.50;;;8.40;1.00;;;;;;10426740;27;84993;-55
2022/03/10 22:22:28;;;;;;;9.73;4.22;;;8.40;1.00;;;;;;10448986;27;84244;-54
2022/03/10 22:27:30;;;;;;;8.00;4.25;;;8.30;1.00;;;;;;10453760;27;84778;-54
2022/03/10 22:32:32;;;;;;;9.18;4.00;;;8.20;1.00;;;;;;10447274;27;84944;-54
2022/03/10 22:37:32;;;;;;;8.35;4.15;;;8.20;1.00;;;;;;10442977;27;84952;-56
2022/03/10 22:42:34;;;;;;;9.02;4.43;;;8.10;99.90;;;;;;10447105;27;84791;-57
2022/03/10 22:47:35;;;;;;;9.60;4.35;;;8.00;99.90;;;;;;10450371;27;84183;-56
2022/03/10 22:57:54;;;;;;;7.80;3.92;;;7.90;1.00;;;;;;10455795;27;87093;-54
2022/03/10 23:02:55;;;;;;;7.43;3.85;;;7.90;1.00;;;;;;10488669;27;84148;-55
2022/03/10 23:07:56;;;;;;;8.45;3.83;;;7.80;99.90;;;;;;10473229;27;84083;-58
2022/03/10 23:12:57;;;;;;;7.82;4.00;;;7.80;1.00;;;;;;10446460;27;84903;-56
2022/03/10 23:17:57;;;;;;;9.85;4.25;;;7.80;1.00;;;;;;10458002;27;84840;-54
2022/03/10 23:22:59;;;;;;;6.60;3.65;;;7.70;99.90;;;;;;10490145;27;84181;-54
2022/03/10 23:28:00;;;;;;;8.10;4.35;;;7.70;1.00;;;;;;10477578;27;84818;-56
2022/03/10 23:33:01;;;;;;;9.55;4.10;;;7.60;1.00;;;;;;10449843;27;84907;-54
2022/03/10 23:38:02;;;;;;;12.63;4.25;;;7.50;99.90;;;;;;10460874;27;85029;-56
2022/03/10 23:43:03;;;;;;;8.65;3.83;;;7.50;1.00;;;;;;10484540;27;85988;-56
2022/03/10 23:48:05;;;;;;;7.40;4.13;;;7.40;1.00;;;;;;10457054;27;84165;-56
2022/03/10 23:53:05;;;;;;;7.70;3.65;;;7.30;99.90;;;;;;10438522;28;87008;-55
2022/03/10 23:58:06;;;;;;;9.63;4.13;;;7.20;1.00;;;;;;10442294;27;84752;-53
